地図

経路データ

SID SEASON NUMBER BASIN SUBBASIN NAME ISO_TIME NATURE LAT LON WMO_WIND WMO_PRES WMO_AGENCY TRACK_TYPE DIST2LAND LANDFALL IFLAG USA_AGENCY USA_ATCF_ID USA_LAT USA_LON USA_RECORD USA_STATUS USA_WIND USA_PRES USA_SSHS USA_R34_NE USA_R34_SE USA_R34_SW USA_R34_NW USA_R50_NE USA_R50_SE USA_R50_SW USA_R50_NW USA_R64_NE USA_R64_SE USA_R64_SW USA_R64_NW USA_POCI USA_ROCI USA_RMW USA_EYE TOKYO_LAT TOKYO_LON TOKYO_GRADE TOKYO_WIND TOKYO_PRES TOKYO_R50_DIR TOKYO_R50_LONG TOKYO_R50_SHORT TOKYO_R30_DIR TOKYO_R30_LONG TOKYO_R30_SHORT TOKYO_LAND CMA_LAT CMA_LON CMA_CAT CMA_WIND CMA_PRES HKO_LAT HKO_LON HKO_CAT HKO_WIND HKO_PRES NEWDELHI_LAT NEWDELHI_LON NEWDELHI_GRADE NEWDELHI_WIND NEWDELHI_PRES NEWDELHI_CI NEWDELHI_DP NEWDELHI_POCI REUNION_LAT REUNION_LON REUNION_TYPE REUNION_WIND REUNION_PRES REUNION_TNUM REUNION_CI REUNION_RMW REUNION_R34_NE REUNION_R34_SE REUNION_R34_SW REUNION_R34_NW REUNION_R50_NE REUNION_R50_SE REUNION_R50_SW REUNION_R50_NW REUNION_R64_NE REUNION_R64_SE REUNION_R64_SW REUNION_R64_NW BOM_LAT BOM_LON BOM_TYPE BOM_WIND BOM_PRES BOM_TNUM BOM_CI BOM_RMW BOM_R34_NE BOM_R34_SE BOM_R34_SW BOM_R34_NW BOM_R50_NE BOM_R50_SE BOM_R50_SW BOM_R50_NW BOM_R64_NE BOM_R64_SE BOM_R64_SW BOM_R64_NW BOM_ROCI BOM_POCI BOM_EYE BOM_POS_METHOD BOM_PRES_METHOD NADI_LAT NADI_LON NADI_CAT NADI_WIND NADI_PRES WELLINGTON_LAT WELLINGTON_LON WELLINGTON_WIND WELLINGTON_PRES DS824_LAT DS824_LON DS824_STAGE DS824_WIND DS824_PRES TD9636_LAT TD9636_LON TD9636_STAGE TD9636_WIND TD9636_PRES TD9635_LAT TD9635_LON TD9635_WIND TD9635_PRES TD9635_ROCI NEUMANN_LAT NEUMANN_LON NEUMANN_CLASS NEUMANN_WIND NEUMANN_PRES MLC_LAT MLC_LON MLC_CLASS MLC_WIND MLC_PRES USA_GUST BOM_GUST BOM_GUST_PER REUNION_GUST REUNION_GUST_PER USA_SEAHGT USA_SEARAD_NE USA_SEARAD_SE USA_SEARAD_SW USA_SEARAD_NW STORM_SPEED STORM_DIR
1966233N13340 1966 60 NA NA FAITH 1966-08-21 00:00:00 TS 12.9000 -20.5000 25 hurdat_atl main 381 381 O_____________ hurdat_atl AL061966 12.9000 -20.5000 TD 25 -1 18 283
1966233N13340 1966 60 NA NA FAITH 1966-08-21 03:00:00 TS 13.0981 -21.3998 main 457 457 P_____________ AL061966 13.0981 -21.3998 TD 25 -1 18 283
1966233N13340 1966 60 NA NA FAITH 1966-08-21 06:00:00 TS 13.3000 -22.3000 25 hurdat_atl main 541 541 O_____________ hurdat_atl AL061966 13.3000 -22.3000 TD 25 -1 18 283
1966233N13340 1966 60 NA NA FAITH 1966-08-21 09:00:00 TS 13.5072 -23.2001 main 629 629 P_____________ AL061966 13.5072 -23.2001 TD 25 -1 18 283
1966233N13340 1966 60 NA NA FAITH 1966-08-21 12:00:00 TS 13.7000 -24.1000 25 hurdat_atl main 720 720 O_____________ hurdat_atl AL061966 13.7000 -24.1000 TD 25 -1 18 281
1966233N13340 1966 60 NA NA FAITH 1966-08-21 15:00:00 TS 13.8573 -25.0077 main 813 813 P_____________ AL061966 13.8573 -25.0077 TD 27 -1 18 280
1966233N13340 1966 60 NA NA FAITH 1966-08-21 18:00:00 TS 14.0000 -25.9000 30 1006 hurdat_atl main 908 908 O_____________ hurdat_atl AL061966 14.0000 -25.9000 TD 30 1006 -1 17 280
1966233N13340 1966 60 NA NA FAITH 1966-08-21 21:00:00 TS 14.1496 -26.7576 main 1004 1003 P_____________ AL061966 14.1496 -26.7576 TD 32 -1 17 280
1966233N13340 1966 60 NA NA FAITH 1966-08-22 00:00:00 TS 14.3000 -27.6000 35 hurdat_atl main 1088 1088 O_____________ hurdat_atl AL061966 14.3000 -27.6000 TS 35 0 17 281
1966233N13340 1966 60 NA NA FAITH 1966-08-22 03:00:00 TS 14.4573 -28.4575 main 1184 1184 P_____________ AL061966 14.4573 -28.4575 TS 35 0 17 280
1966233N13340 1966 60 NA NA FAITH 1966-08-22 06:00:00 TS 14.6000 -29.3000 35 hurdat_atl main 1269 1269 O_____________ hurdat_atl AL061966 14.6000 -29.3000 TS 35 0 16 279
1966233N13340 1966 60 NA NA FAITH 1966-08-22 09:00:00 TS 14.7070 -30.0927 main 1355 1355 P_____________ AL061966 14.7070 -30.0927 TS 37 0 16 277
1966233N13340 1966 60 NA NA FAITH 1966-08-22 12:00:00 TS 14.8000 -30.9000 40 hurdat_atl main 1441 1441 O_____________ hurdat_atl AL061966 14.8000 -30.9000 TS 40 0 16 277
1966233N13340 1966 60 NA NA FAITH 1966-08-22 15:00:00 TS 14.9070 -31.7625 main 1537 1537 P_____________ AL061966 14.9070 -31.7625 TS 42 0 18 277
1966233N13340 1966 60 NA NA FAITH 1966-08-22 18:00:00 TS 15.0000 -32.7000 45 hurdat_atl main 1634 1634 O_____________ hurdat_atl AL061966 15.0000 -32.7000 TS 45 0 19 275
1966233N13340 1966 60 NA NA FAITH 1966-08-22 21:00:00 TS 15.0570 -33.7052 main 1741 1741 P_____________ AL061966 15.0570 -33.7052 TS 47 0 20 273
1966233N13340 1966 60 NA NA FAITH 1966-08-23 00:00:00 TS 15.1000 -34.8000 50 hurdat_atl main 1859 1859 O_____________ hurdat_atl AL061966 15.1000 -34.8000 TS 50 0 22 273
1966233N13340 1966 60 NA NA FAITH 1966-08-23 03:00:00 TS 15.1572 -35.9775 main 1988 1976 P_____________ AL061966 15.1572 -35.9775 TS 55 0 23 272
1966233N13340 1966 60 NA NA FAITH 1966-08-23 06:00:00 TS 15.2000 -37.2000 60 hurdat_atl main 1968 1875 O_____________ hurdat_atl AL061966 15.2000 -37.2000 TS 60 0 24 271
1966233N13340 1966 60 NA NA FAITH 1966-08-23 09:00:00 TS 15.1996 -38.4152 main 1866 1777 P_____________ AL061966 15.1996 -38.4152 TS 62 0 23 270
1966233N13340 1966 60 NA NA FAITH 1966-08-23 12:00:00 TS 15.2000 -39.6000 65 hurdat_atl main 1769 1684 O_____________ hurdat_atl AL061966 15.2000 -39.6000 HU 65 1 22 271
1966233N13340 1966 60 NA NA FAITH 1966-08-23 15:00:00 TS 15.2494 -40.7298 main 1684 1619 P_____________ AL061966 15.2495 -40.7298 HU 65 1 21 273
1966233N13340 1966 60 NA NA FAITH 1966-08-23 18:00:00 TS 15.3000 -41.8000 65 992 hurdat_atl main 1612 1543 O_____________ hurdat_atl AL061966 15.3000 -41.8000 HU 65 992 1 20 272
1966233N13340 1966 60 NA NA FAITH 1966-08-23 21:00:00 TS 15.3069 -42.8226 main 1543 1486 P_____________ AL061966 15.3069 -42.8226 HU 65 1 19 270
1966233N13340 1966 60 NA NA FAITH 1966-08-24 00:00:00 TS 15.3000 -43.8000 65 hurdat_atl main 1480 1423 O_____________ hurdat_atl AL061966 15.3000 -43.8000 HU 65 1 19 270
1966233N13340 1966 60 NA NA FAITH 1966-08-24 03:00:00 TS 15.2994 -44.7500 main 1423 1365 P_____________ AL061966 15.2994 -44.7500 HU 65 1 18 270
1966233N13340 1966 60 NA NA FAITH 1966-08-24 06:00:00 TS 15.3000 -45.7000 65 hurdat_atl main 1359 1307 O_____________ hurdat_atl AL061966 15.3000 -45.7000 HU 65 1 19 270
1966233N13340 1966 60 NA NA FAITH 1966-08-24 09:00:00 TS 15.2846 -46.6852 main 1302 1256 P_____________ AL061966 15.2846 -46.6852 HU 65 1 19 270
1966233N13340 1966 60 NA NA FAITH 1966-08-24 12:00:00 TS 15.3000 -47.7000 65 992 hurdat_atl main 1251 1210 O_____________ hurdat_atl AL061966 15.3000 -47.7000 HU 65 992 1 20 272
1966233N13340 1966 60 NA NA FAITH 1966-08-24 15:00:00 TS 15.3620 -48.7353 main 1216 1182 P_____________ AL061966 15.3620 -48.7353 HU 65 992 1 20 276
1966233N13340 1966 60 NA NA FAITH 1966-08-24 18:00:00 TS 15.5000 -49.8000 65 hurdat_atl main 1177 1158 I_____________ hurdat_atl AL061966 15.5000 -49.8000 HU 65 992 1 21 280
1966233N13340 1966 60 NA NA FAITH 1966-08-24 21:00:00 TS 15.7347 -50.8997 main 1155 1149 P_____________ AL061966 15.7347 -50.8997 HU 65 992 1 22 283
1966233N13340 1966 60 NA NA FAITH 1966-08-25 00:00:00 TS 16.0000 -52.0000 65 993 hurdat_atl main 1140 1061 O_____________ hurdat_atl AL061966 16.0000 -52.0000 HU 65 993 1 21 283
1966233N13340 1966 60 NA NA FAITH 1966-08-25 03:00:00 TS 16.2144 -53.0577 main 1053 989 P_____________ AL061966 16.2144 -53.0577 HU 65 994 1 21 281
1966233N13340 1966 60 NA NA FAITH 1966-08-25 06:00:00 TS 16.4000 -54.1000 65 995 hurdat_atl main 981 910 O_____________ hurdat_atl AL061966 16.4000 -54.1000 HU 65 995 1 21 280
1966233N13340 1966 60 NA NA FAITH 1966-08-25 09:00:00 TS 16.5573 -55.1727 main 910 855 P_____________ AL061966 16.5573 -55.1727 HU 70 990 1 20 278
1966233N13340 1966 60 NA NA FAITH 1966-08-25 12:00:00 TS 16.7000 -56.2000 75 986 hurdat_atl main 848 802 O_____________ hurdat_atl AL061966 16.7000 -56.2000 HU 75 986 1 19 279
1966233N13340 1966 60 NA NA FAITH 1966-08-25 15:00:00 TS 16.8420 -57.1377 main 802 776 P_____________ AL061966 16.8420 -57.1377 HU 72 988 1 18 280
1966233N13340 1966 60 NA NA FAITH 1966-08-25 18:00:00 TS 17.0000 -58.0000 70 990 hurdat_atl main 776 729 O_____________ hurdat_atl AL061966 17.0000 -58.0000 HU 70 990 1 17 282
1966233N13340 1966 60 NA NA FAITH 1966-08-25 21:00:00 TS 17.1847 -58.8301 main 729 641 P_____________ AL061966 17.1847 -58.8301 HU 65 992 1 16 285
1966233N13340 1966 60 NA NA FAITH 1966-08-26 00:00:00 TS 17.4000 -59.6000 60 994 hurdat_atl main 641 564 O_____________ hurdat_atl AL061966 17.4000 -59.6000 TS 60 994 0 15 288
1966233N13340 1966 60 NA NA FAITH 1966-08-26 03:00:00 TS 17.6422 -60.3226 main 564 487 P_____________ AL061966 17.6422 -60.3226 TS 57 995 0 14 291
1966233N13340 1966 60 NA NA FAITH 1966-08-26 06:00:00 TS 17.9000 -61.0000 55 997 hurdat_atl main 487 422 O_____________ hurdat_atl AL061966 17.9000 -61.0000 TS 55 997 0 14 292
1966233N13340 1966 60 NA CS FAITH 1966-08-26 09:00:00 TS 18.1421 -61.6503 main 412 348 P_____________ AL061966 18.1421 -61.6503 TS 55 996 0 13 292
1966233N13340 1966 60 NA CS FAITH 1966-08-26 12:00:00 TS 18.4000 -62.3000 55 995 hurdat_atl main 348 276 O_____________ hurdat_atl AL061966 18.4000 -62.3000 TS 55 995 0 14 293
1966233N13340 1966 60 NA CS FAITH 1966-08-26 15:00:00 TS 18.6848 -62.9927 main 276 211 P_____________ AL061966 18.6848 -62.9927 TS 57 994 0 15 294
1966233N13340 1966 60 NA NA FAITH 1966-08-26 18:00:00 TS 19.0000 -63.7000 60 994 hurdat_atl main 211 161 O_____________ hurdat_atl AL061966 19.0000 -63.7000 TS 60 994 0 15 296
1966233N13340 1966 60 NA NA FAITH 1966-08-26 21:00:00 TS 19.3424 -64.4151 main 161 148 P_____________ AL061966 19.3424 -64.4151 TS 65 990 1 15 298
1966233N13340 1966 60 NA NA FAITH 1966-08-27 00:00:00 TS 19.7000 -65.1000 70 987 hurdat_atl main 154 151 O_____________ hurdat_atl AL061966 19.7000 -65.1000 HU 70 987 1 14 300
1966233N13340 1966 60 NA NA FAITH 1966-08-27 03:00:00 TS 20.0571 -65.7153 main 190 190 P_____________ AL061966 20.0571 -65.7153 HU 67 990 1 13 302
1966233N13340 1966 60 NA NA FAITH 1966-08-27 06:00:00 TS 20.4000 -66.3000 65 993 hurdat_atl main 223 223 O_____________ hurdat_atl AL061966 20.4000 -66.3000 HU 65 993 1 13 300
1966233N13340 1966 60 NA NA FAITH 1966-08-27 09:00:00 TS 20.6996 -66.8855 main 257 257 P_____________ AL061966 20.6996 -66.8855 HU 65 991 1 13 298
1966233N13340 1966 60 NA NA FAITH 1966-08-27 12:00:00 TS 21.0000 -67.5000 65 989 hurdat_atl main 267 251 O_____________ hurdat_atl AL061966 21.0000 -67.5000 HU 65 989 1 14 298
1966233N13340 1966 60 NA NA FAITH 1966-08-27 15:00:00 TS 21.3576 -68.2073 main 261 252 P_____________ AL061966 21.3576 -68.2073 HU 67 986 1 15 298
1966233N13340 1966 60 NA NA FAITH 1966-08-27 18:00:00 TS 21.7000 -68.9000 70 983 hurdat_atl main 261 256 O_____________ hurdat_atl AL061966 21.7000 -68.9000 HU 70 983 1 14 296
1966233N13340 1966 60 NA NA FAITH 1966-08-27 21:00:00 TS 21.9650 -69.5252 main 271 263 P_____________ AL061966 21.9650 -69.5252 HU 72 981 1 11 296
1966233N13340 1966 60 NA NA FAITH 1966-08-28 00:00:00 TS 22.2000 -70.0000 75 979 hurdat_atl main 275 273 O_____________ hurdat_atl AL061966 22.2000 -70.0000 HU 75 979 1 8 305
1966233N13340 1966 60 NA NA FAITH 1966-08-28 03:00:00 TS 22.4422 -70.2603 main 292 292 P_____________ AL061966 22.4422 -70.2603 HU 77 976 1 6 324
1966233N13340 1966 60 NA NA FAITH 1966-08-28 06:00:00 TS 22.7000 -70.4000 80 973 hurdat_atl main 316 313 O_____________ hurdat_atl AL061966 22.7000 -70.4000 HU 80 973 1 6 334
1966233N13340 1966 60 NA NA FAITH 1966-08-28 09:00:00 TS 23.0000 -70.5576 main 318 318 P_____________ AL061966 23.0000 -70.5576 HU 87 967 2 7 335
1966233N13340 1966 60 NA NA FAITH 1966-08-28 12:00:00 TS 23.3000 -70.7000 95 962 hurdat_atl main 333 333 O_____________ hurdat_atl AL061966 23.3000 -70.7000 HU 95 962 2 6 333
1966233N13340 1966 60 NA NA FAITH 1966-08-28 15:00:00 TS 23.5650 -70.8650 main 344 344 P_____________ AL061966 23.5650 -70.8650 HU 97 959 3 6 331
1966233N13340 1966 60 NA NA FAITH 1966-08-28 18:00:00 TS 23.8000 -71.0000 100 957 hurdat_atl main 355 355 O_____________ hurdat_atl AL061966 23.8000 -71.0000 HU 100 957 3 5 337
1966233N13340 1966 60 NA NA FAITH 1966-08-28 21:00:00 TS 24.0075 -71.0726 main 368 368 P_____________ AL061966 24.0075 -71.0726 HU 100 956 3 4 348
1966233N13340 1966 60 NA NA FAITH 1966-08-29 00:00:00 TS 24.2000 -71.1000 100 955 hurdat_atl main 387 387 O_____________ hurdat_atl AL061966 24.2000 -71.1000 HU 100 955 3 4 356
1966233N13340 1966 60 NA NA FAITH 1966-08-29 03:00:00 TS 24.4000 -71.1075 main 407 407 P_____________ AL061966 24.4000 -71.1075 HU 97 957 3 4 0
1966233N13340 1966 60 NA NA FAITH 1966-08-29 06:00:00 TS 24.6000 -71.1000 95 960 hurdat_atl main 426 426 O_____________ hurdat_atl AL061966 24.6000 -71.1000 HU 95 960 2 4 0
1966233N13340 1966 60 NA NA FAITH 1966-08-29 09:00:00 TS 24.8000 -71.0925 main 446 446 P_____________ AL061966 24.8000 -71.0925 HU 92 961 2 4 0
1966233N13340 1966 60 NA NA FAITH 1966-08-29 12:00:00 TS 25.0000 -71.1000 90 963 hurdat_atl main 467 467 O_____________ hurdat_atl AL061966 25.0000 -71.1000 HU 90 963 2 4 355
1966233N13340 1966 60 NA NA FAITH 1966-08-29 15:00:00 TS 25.2000 -71.1275 main 487 487 P_____________ AL061966 25.2000 -71.1275 HU 90 963 2 4 348
1966233N13340 1966 60 NA NA FAITH 1966-08-29 18:00:00 TS 25.4000 -71.2000 90 963 hurdat_atl main 504 504 O_____________ hurdat_atl AL061966 25.4000 -71.2000 HU 90 963 2 4 335
1966233N13340 1966 60 NA NA FAITH 1966-08-29 21:00:00 TS 25.5925 -71.3276 main 521 518 P_____________ AL061966 25.5925 -71.3276 HU 90 963 2 5 326
1966233N13340 1966 60 NA NA FAITH 1966-08-30 00:00:00 TS 25.8000 -71.5000 90 963 hurdat_atl main 536 536 O_____________ hurdat_atl AL061966 25.8000 -71.5000 HU 90 963 2 6 323
1966233N13340 1966 60 NA NA FAITH 1966-08-30 03:00:00 TS 26.0350 -71.6926 main 552 552 P_____________ AL061966 26.0350 -71.6926 HU 85 966 2 6 324
1966233N13340 1966 60 NA NA FAITH 1966-08-30 06:00:00 TS 26.3000 -71.9000 80 970 hurdat_atl main 580 580 O_____________ hurdat_atl AL061966 26.3000 -71.9000 HU 80 970 1 7 328
1966233N13340 1966 60 NA NA FAITH 1966-08-30 09:00:00 TS 26.5999 -72.0851 main 608 602 P_____________ AL061966 26.5999 -72.0851 HU 82 968 1 7 329
1966233N13340 1966 60 NA NA FAITH 1966-08-30 12:00:00 TS 26.9000 -72.3000 85 966 hurdat_atl main 602 583 O_____________ hurdat_atl AL061966 26.9000 -72.3000 HU 85 966 2 7 320
1966233N13340 1966 60 NA NA FAITH 1966-08-30 15:00:00 TS 27.1501 -72.6075 main 587 569 P_____________ AL061966 27.1501 -72.6075 HU 85 966 2 7 313
1966233N13340 1966 60 NA NA FAITH 1966-08-30 18:00:00 TS 27.4000 -72.9000 85 967 hurdat_atl main 569 562 O_____________ hurdat_atl AL061966 27.4000 -72.9000 HU 85 967 2 7 322
1966233N13340 1966 60 NA NA FAITH 1966-08-30 21:00:00 TS 27.6849 -73.0802 main 567 567 P_____________ AL061966 27.6849 -73.0802 HU 85 967 2 7 336
1966233N13340 1966 60 NA NA FAITH 1966-08-31 00:00:00 TS 28.0000 -73.2000 85 967 hurdat_atl main 576 574 O_____________ hurdat_atl AL061966 28.0000 -73.2000 HU 85 967 2 7 343
1966233N13340 1966 60 NA NA FAITH 1966-08-31 03:00:00 TS 28.3425 -73.3150 main 587 587 P_____________ AL061966 28.3425 -73.3150 HU 82 970 1 7 346
1966233N13340 1966 60 NA NA FAITH 1966-08-31 06:00:00 TS 28.7000 -73.4000 80 973 hurdat_atl main 607 607 O_____________ hurdat_atl AL061966 28.7000 -73.4000 HU 80 973 1 7 348
1966233N13340 1966 60 NA NA FAITH 1966-08-31 09:00:00 TS 29.0200 -73.4798 main 622 622 P_____________ AL061966 29.0200 -73.4798 HU 82 970 1 7 353
1966233N13340 1966 60 NA NA FAITH 1966-08-31 12:00:00 TS 29.4000 -73.5000 85 hurdat_atl main 654 604 I_____________ hurdat_atl AL061966 29.4000 -73.5000 HU 85 968 2 9 1
1966233N13340 1966 60 NA NA FAITH 1966-08-31 15:00:00 TS 29.9123 -73.4669 main 604 555 P_____________ AL061966 29.9123 -73.4669 HU 87 965 2 11 9
1966233N13340 1966 60 NA NA FAITH 1966-08-31 18:00:00 TS 30.5000 -73.3000 90 963 hurdat_atl main 555 517 O_____________ hurdat_atl AL061966 30.5000 -73.3000 HU 90 963 2 13 20
1966233N13340 1966 60 NA NA FAITH 1966-08-31 21:00:00 TS 31.0925 -72.9674 main 517 499 P_____________ AL061966 31.0925 -72.9674 HU 90 963 2 14 30
1966233N13340 1966 60 NA NA FAITH 1966-09-01 00:00:00 TS 31.7000 -72.5000 90 hurdat_atl main 499 491 I_____________ hurdat_atl AL061966 31.7000 -72.5000 HU 90 963 2 15 35
1966233N13340 1966 60 NA NA FAITH 1966-09-01 03:00:00 TS 32.3075 -71.9723 main 491 491 P_____________ AL061966 32.3075 -71.9723 HU 90 963 2 15 38
1966233N13340 1966 60 NA NA FAITH 1966-09-01 06:00:00 TS 32.9000 -71.4000 90 963 hurdat_atl main 495 488 O_____________ hurdat_atl AL061966 32.9000 -71.4000 HU 90 963 2 15 39
1966233N13340 1966 60 NA NA FAITH 1966-09-01 09:00:00 TS 33.4647 -70.8493 main 499 493 P_____________ AL061966 33.4647 -70.8493 HU 90 963 2 14 40
1966233N13340 1966 60 NA NA FAITH 1966-09-01 12:00:00 TS 34.0000 -70.3000 90 963 hurdat_atl main 513 513 O_____________ hurdat_atl AL061966 34.0000 -70.3000 HU 90 963 2 14 41
1966233N13340 1966 60 NA NA FAITH 1966-09-01 15:00:00 TS 34.5221 -69.7569 main 536 536 P_____________ AL061966 34.5221 -69.7569 HU 92 960 2 14 42
1966233N13340 1966 60 NA NA FAITH 1966-09-01 18:00:00 TS 35.0000 -69.2000 95 957 hurdat_atl main 576 576 O_____________ hurdat_atl AL061966 35.0000 -69.2000 HU 95 957 2 13 46
1966233N13340 1966 60 NA NA FAITH 1966-09-01 21:00:00 TS 35.4223 -68.6069 main 623 623 P_____________ AL061966 35.4223 -68.6069 HU 95 957 2 13 51
1966233N13340 1966 60 NA NA FAITH 1966-09-02 00:00:00 TS 35.8000 -68.0000 95 958 hurdat_atl main 674 649 O_____________ hurdat_atl AL061966 35.8000 -68.0000 HU 95 958 2 12 52
1966233N13340 1966 60 NA NA FAITH 1966-09-02 03:00:00 TS 36.1717 -67.4293 main 651 637 P_____________ AL061966 36.1717 -67.4293 HU 92 959 2 12 54
1966233N13340 1966 60 NA NA FAITH 1966-09-02 06:00:00 TS 36.5000 -66.8000 90 960 hurdat_atl main 640 632 O_____________ hurdat_atl AL061966 36.5000 -66.8000 HU 90 960 2 13 60
1966233N13340 1966 60 NA NA FAITH 1966-09-02 09:00:00 TS 36.7940 -66.0751 main 639 639 P_____________ AL061966 36.7940 -66.0751 HU 90 2 14 69
1966233N13340 1966 60 NA NA FAITH 1966-09-02 12:00:00 TS 37.0000 -65.2000 90 hurdat_atl main 665 665 O_____________ hurdat_atl AL061966 37.0000 -65.2000 HU 90 2 15 79
1966233N13340 1966 60 NA NA FAITH 1966-09-02 15:00:00 TS 37.0785 -64.1962 main 713 713 P_____________ AL061966 37.0785 -64.1962 HU 92 2 18 87
1966233N13340 1966 60 NA NA FAITH 1966-09-02 18:00:00 TS 37.1000 -63.0000 95 hurdat_atl main 738 738 O_____________ hurdat_atl AL061966 37.1000 -63.0000 HU 95 2 21 88
1966233N13340 1966 60 NA NA FAITH 1966-09-02 21:00:00 TS 37.1344 -61.6163 main 777 777 P_____________ AL061966 37.1344 -61.6163 HU 97 3 23 88
1966233N13340 1966 60 NA NA FAITH 1966-09-03 00:00:00 TS 37.2000 -60.1000 100 hurdat_atl main 826 826 O_____________ hurdat_atl AL061966 37.2000 -60.1000 HU 100 3 24 86
1966233N13340 1966 60 NA NA FAITH 1966-09-03 03:00:00 TS 37.2964 -58.5556 main 891 891 P_____________ AL061966 37.2964 -58.5556 HU 102 3 25 83
1966233N13340 1966 60 NA NA FAITH 1966-09-03 06:00:00 TS 37.5000 -57.0000 105 950 hurdat_atl main 921 920 O_____________ hurdat_atl AL061966 37.5000 -57.0000 HU 105 950 3 25 78
1966233N13340 1966 60 NA NA FAITH 1966-09-03 09:00:00 TS 37.8140 -55.5267 main 944 923 P_____________ AL061966 37.8140 -55.5267 HU 105 3 25 71
1966233N13340 1966 60 NA NA FAITH 1966-09-03 12:00:00 TS 38.3000 -54.0000 105 hurdat_atl main 923 858 O_____________ hurdat_atl AL061966 38.3000 -54.0000 HU 105 3 28 67
1966233N13340 1966 60 NA NA FAITH 1966-09-03 15:00:00 TS 38.8943 -52.2832 main 859 804 P_____________ AL061966 38.8943 -52.2832 HU 102 3 31 63
1966233N13340 1966 60 NA NA FAITH 1966-09-03 18:00:00 TS 39.7000 -50.5000 100 hurdat_atl main 797 750 O_____________ hurdat_atl AL061966 39.7000 -50.5000 HU 100 3 33 57
1966233N13340 1966 60 NA NA FAITH 1966-09-03 21:00:00 TS 40.6927 -48.7449 main 748 714 P_____________ AL061966 40.6927 -48.7449 HU 97 3 34 50
1966233N13340 1966 60 NA NA FAITH 1966-09-04 00:00:00 TS 41.9000 -47.0000 95 hurdat_atl main 717 713 O_____________ hurdat_atl AL061966 41.9000 -47.0000 HU 95 2 36 45
1966233N13340 1966 60 NA NA FAITH 1966-09-04 03:00:00 TS 43.2526 -45.2457 main 723 723 P_____________ AL061966 43.2526 -45.2457 HU 92 2 38 42
1966233N13340 1966 60 NA NA FAITH 1966-09-04 06:00:00 ET 44.7000 -43.5000 90 hurdat_atl main 764 764 O_____________ hurdat_atl AL061966 44.7000 -43.5000 EX 90 -4 38 41
1966233N13340 1966 60 NA NA FAITH 1966-09-04 09:00:00 ET 46.1048 -41.7420 main 839 839 P_____________ AL061966 46.1048 -41.7420 EX 90 -4 37 41
1966233N13340 1966 60 NA NA FAITH 1966-09-04 12:00:00 ET 47.5000 -40.0000 90 954 hurdat_atl main 941 941 O_____________ hurdat_atl AL061966 47.5000 -40.0000 EX 90 954 -4 36 41
1966233N13340 1966 60 NA NA FAITH 1966-09-04 15:00:00 ET 48.8623 -38.2408 main 1072 1072 P_____________ AL061966 48.8623 -38.2408 EX 90 -4 35 40
1966233N13340 1966 60 NA NA FAITH 1966-09-04 18:00:00 ET 50.2000 -36.5000 90 hurdat_atl main 1172 1088 O_____________ hurdat_atl AL061966 50.2000 -36.5000 EX 90 -4 35 40
1966233N13340 1966 60 NA NA FAITH 1966-09-04 21:00:00 ET 51.5195 -34.7480 main 1084 1016 P_____________ AL061966 51.5195 -34.7480 EX 90 -4 34 40
1966233N13340 1966 60 NA NA FAITH 1966-09-05 00:00:00 ET 52.8000 -33.0000 90 hurdat_atl main 1014 972 O_____________ hurdat_atl AL061966 52.8000 -33.0000 EX 90 -4 33 40
1966233N13340 1966 60 NA NA FAITH 1966-09-05 03:00:00 ET 54.0305 -31.2883 main 977 963 P_____________ AL061966 54.0305 -31.2883 EX 87 -4 32 41
1966233N13340 1966 60 NA NA FAITH 1966-09-05 06:00:00 ET 55.2000 -29.4000 85 hurdat_atl main 972 865 O_____________ hurdat_atl AL061966 55.2000 -29.4000 EX 85 -4 33 46
1966233N13340 1966 60 NA NA FAITH 1966-09-05 09:00:00 ET 56.3245 -27.0626 main 864 726 P_____________ AL061966 56.3245 -27.0626 EX 82 -4 34 52
1966233N13340 1966 60 NA NA FAITH 1966-09-05 12:00:00 ET 57.3000 -24.5000 80 hurdat_atl main 724 617 O_____________ hurdat_atl AL061966 57.3000 -24.5000 EX 80 -4 32 58
1966233N13340 1966 60 NA NA FAITH 1966-09-05 15:00:00 ET 58.0331 -22.0552 main 617 522 P_____________ AL061966 58.0331 -22.0552 EX 77 -4 30 63
1966233N13340 1966 60 NA NA FAITH 1966-09-05 18:00:00 ET 58.7000 -19.4000 75 hurdat_atl main 521 457 O_____________ hurdat_atl AL061966 58.7000 -19.4000 EX 75 -4 34 65
1966233N13340 1966 60 NA NA FAITH 1966-09-05 21:00:00 ET 59.4631 -16.0988 main 452 402 P_____________ AL061966 59.4631 -16.0988 EX 72 -4 37 66
1966233N13340 1966 60 NA NA FAITH 1966-09-06 00:00:00 ET 60.2000 -12.7000 70 hurdat_atl main 393 326 O_____________ hurdat_atl AL061966 60.2000 -12.7000 EX 70 -4 35 66
1966233N13340 1966 60 NA NA FAITH 1966-09-06 03:00:00 ET 60.8788 -9.71252 main 329 320 P_____________ AL061966 60.8788 -9.71252 EX 67 -4 30 65
1966233N13340 1966 60 NA NA FAITH 1966-09-06 06:00:00 ET 61.5000 -7.00000 65 hurdat_atl main 344 343 O_____________ hurdat_atl AL061966 61.5000 -7.00000 EX 65 -4 28 65
1966233N13340 1966 60 NA NA FAITH 1966-09-06 09:00:00 ET 62.0668 -4.44437 main 391 372 P_____________ AL061966 62.0668 -4.44437 EX 62 -4 25 67
1966233N13340 1966 60 NA NA FAITH 1966-09-06 12:00:00 ET 62.5000 -2.00000 60 hurdat_atl main 366 254 O_____________ hurdat_atl AL061966 62.5000 -2.00000 EX 60 -4 23 74
1966233N13340 1966 60 NA NA FAITH 1966-09-06 15:00:00 ET 62.7009 0.440228 main 249 140 P_____________ AL061966 62.7009 0.440228 EX 60 -4 23 83
1966233N13340 1966 60 NA NA FAITH 1966-09-06 18:00:00 ET 62.8000 3.00000 60 hurdat_atl main 132 53 O_____________ hurdat_atl AL061966 62.8000 -357.000 EX 60 -4 25 86
1966233N13340 1966 60 NA NA FAITH 1966-09-06 21:00:00 ET 62.8858 5.86105 main 48 0 P_____________ AL061966 62.8858 5.86105 EX 57 -4 27 86
1966233N13340 1966 60 NA NA FAITH 1966-09-07 00:00:00 ET 63.0000 9.00000 55 hurdat_atl main 0 0 O_____________ hurdat_atl AL061966 63.0000 -351.000 EX 55 -4 30 85
1966233N13340 1966 60 NA NA FAITH 1966-09-07 03:00:00 ET 63.1672 12.4299 main 0 0 P_____________ AL061966 63.1672 12.4299 EX 55 -4 32 83
1966233N13340 1966 60 NA NA FAITH 1966-09-07 06:00:00 ET 63.4000 16.0000 55 hurdat_atl main 0 0 O_____________ hurdat_atl AL061966 63.4000 -344.000 EX 55 -4 32 81
1966233N13340 1966 60 NA NA FAITH 1966-09-07 09:00:00 ET 63.6695 19.5044 main 0 0 P_____________ AL061966 63.6695 19.5044 EX 52 -4 31 79
1966233N13340 1966 60 NA NA FAITH 1966-09-07 12:00:00 ET 64.0000 23.0000 50 hurdat_atl main 19 0 O_____________ hurdat_atl AL061966 64.0000 -337.000 EX 50 -4 32 78
1966233N13340 1966 60 NA NA FAITH 1966-09-07 15:00:00 ET 64.3213 26.6549 main 0 0 P_____________ AL061966 64.3213 26.6549 EX 50 -4 31 77
1966233N13340 1966 60 NA NA FAITH 1966-09-07 18:00:00 ET 64.7000 30.0000 50 atcf main 0 0 O_____________ hurdat_atl AL061966 64.7000 -330.000 EX 50 -4 27 72
1966233N13340 1966 60 NI AS FAITH 1966-09-07 21:00:00 ET 65.1589 32.6948 main 0 0 P_____________ AL061966 65.1589 32.6948 EX 50 -4 23 65
1966233N13340 1966 60 NI AS FAITH 1966-09-08 00:00:00 ET 65.7000 35.0000 main 4 0 O_____________ hurdat_atl AL061966 65.7000 -325.000 EX 50 -4 22 61
1966233N13340 1966 60 NI AS FAITH 1966-09-08 03:00:00 ET 66.2340 37.4032 main 0 0 P_____________ AL061966 66.2340 37.4032 EX 50 -4 21 59
1966233N13340 1966 60 NI AS FAITH 1966-09-08 06:00:00 ET 66.8000 39.5000 main 0 0 O_____________ hurdat_atl AL061966 66.8000 -320.500 EX 50 -4 18 52
1966233N13340 1966 60 NI AS FAITH 1966-09-08 09:00:00 ET 67.3638 41.0961 main 4 4 P_____________ AL061966 67.3638 41.0961 EX 50 -4 17 44
1966233N13340 1966 60 NI AS FAITH 1966-09-08 12:00:00 ET 68.0000 42.5000 main 70 4 O_____________ hurdat_atl AL061966 68.0000 -317.500 EX 50 -4 18 41
1966233N13340 1966 60 NI AS FAITH 1966-09-08 15:00:00 ET 68.7270 44.2159 main 22 22 P_____________ AL061966 68.7270 44.2159 EX 50 -4 20 40
1966233N13340 1966 60 NI AS FAITH 1966-09-08 18:00:00 ET 69.5000 46.0000 main 96 82 O_____________ hurdat_atl AL061966 69.5000 -314.000 EX 50 -4 20 40
1966233N13340 1966 60 NI AS FAITH 1966-09-08 21:00:00 ET 70.2501 47.8291 main 103 95 P_____________ AL061966 70.2501 47.8291 EX 50 -4 19 38
1966233N13340 1966 60 NI AS FAITH 1966-09-09 00:00:00 ET 71.0000 49.5000 main 92 23 O_____________ hurdat_atl AL061966 71.0000 -310.500 EX 50 -4 18 34
1966233N13340 1966 60 NI AS FAITH 1966-09-09 03:00:00 ET 71.7484 50.9094 main 20 10 P_____________ AL061966 71.7484 50.9094 EX 50 -4 17 28
1966233N13340 1966 60 NI AS FAITH 1966-09-09 06:00:00 ET 72.5000 52.0000 main 23 3 O_____________ hurdat_atl AL061966 72.5000 -308.000 EX 50 -4 16 21
1966233N13340 1966 60 NI AS FAITH 1966-09-09 09:00:00 ET 73.2865 52.8903 main 14 14 P_____________ AL061966 73.2865 52.8903 EX 50 -4 16 16
1966233N13340 1966 60 NI AS FAITH 1966-09-09 12:00:00 ET 74.0000 53.5000 main 26 26 O_____________ hurdat_atl AL061966 74.0000 -306.500 EX 50 -4 13 13
1966233N13340 1966 60 NI AS FAITH 1966-09-09 15:00:00 ET 74.5370 53.9427 main 45 45 P_____________ AL061966 74.5370 53.9427 EX 50 -4 10 11
1966233N13340 1966 60 NI AS FAITH 1966-09-09 18:00:00 ET 75.0000 54.2000 main 48 46 O_____________ hurdat_atl AL061966 75.0000 -305.800 EX 50 -4 10 8
1966233N13340 1966 60 NI AS FAITH 1966-09-09 21:00:00 ET 75.4999 54.4396 main 62 60 P_____________ AL061966 75.4999 54.4396 EX 47 -4 10 6
1966233N13340 1966 60 NI AS FAITH 1966-09-10 00:00:00 ET 76.0000 54.6000 main 97 97 O_____________ hurdat_atl AL061966 76.0000 -305.400 EX 45 -4 10 4
1966233N13340 1966 60 NI AS FAITH 1966-09-10 03:00:00 ET 76.5000 54.7174 main 128 128 P_____________ AL061966 76.5000 54.7174 EX 45 -4 10 2
1966233N13340 1966 60 NI AS FAITH 1966-09-10 06:00:00 ET 77.0000 54.8000 main 160 160 O_____________ hurdat_atl AL061966 77.0000 -305.200 EX 45 -4 10 2
1966233N13340 1966 60 NI AS FAITH 1966-09-10 09:00:00 ET 77.5000 54.9140 main 203 203 P_____________ AL061966 77.5000 54.9140 EX 45 -4 10 2
1966233N13340 1966 60 NI AS FAITH 1966-09-10 12:00:00 ET 78.0000 55.0000 main 247 222 O_____________ hurdat_atl AL061966 78.0000 -305.000 EX 45 -4 10 1
1966233N13340 1966 60 NI AS FAITH 1966-09-10 15:00:00 ET 78.5000 55.0169 main 222 176 P_____________ AL061966 78.5000 55.0169 EX 45 -4 10 1
1966233N13340 1966 60 NI AS FAITH 1966-09-10 18:00:00 ET 79.0000 55.0000 main 176 134 O_____________ hurdat_atl AL061966 79.0000 -305.000 EX 45 -4 10 359
1966233N13340 1966 60 NI AS FAITH 1966-09-10 21:00:00 ET 79.5000 55.0000 main 134 0 P_____________ AL061966 79.5000 55.0000 EX 45 -4 10 1
1966233N13340 1966 60 NI AS FAITH 1966-09-11 00:00:00 ET 80.0000 55.0000 main 0 0 O_____________ hurdat_atl AL061966 80.0000 -305.000 EX 45 -4 10 1
1966233N13340 1966 60 NI AS FAITH 1966-09-11 03:00:00 ET 80.5000 55.0000 main 0 0 P_____________ AL061966 80.5000 55.0000 EX 45 -4 10 1
1966233N13340 1966 60 NI AS FAITH 1966-09-11 06:00:00 ET 81.0000 55.0000 main 0 0 O_____________ hurdat_atl AL061966 81.0000 -305.000 EX 45 -4 10 359
1966233N13340 1966 60 NI AS FAITH 1966-09-11 09:00:00 ET 81.5375 54.9867 main 0 0 P_____________ AL061966 81.5375 54.9867 EX 42 -4 10 1
1966233N13340 1966 60 NI AS FAITH 1966-09-11 12:00:00 ET 82.0000 55.0000 main 0 0 O_____________ hurdat_atl AL061966 82.0000 -305.000 EX 40 -4 8 0
1966233N13340 1966 60 NI AS FAITH 1966-09-11 15:00:00 ET 82.3100 55.0766 main 0 0 P_____________ AL061966 82.3100 55.0766 EX 40 -4 5 2
1966233N13340 1966 60 NI AS FAITH 1966-09-11 18:00:00 ET 82.5000 55.2000 main 0 0 O_____________ hurdat_atl AL061966 82.5000 -304.800 EX 40 -4 3 6
1966233N13340 1966 60 NI AS FAITH 1966-09-11 21:00:00 ET 82.6225 55.3148 main 0 0 P_____________ AL061966 82.6225 55.3148 EX 37 -4 2 13
1966233N13340 1966 60 NI AS FAITH 1966-09-12 00:00:00 ET 82.7000 55.5000 main 0 0 O_____________ hurdat_atl AL061966 82.7000 -304.500 EX 35 -4 2 21
1966233N13340 1966 60 NI AS FAITH 1966-09-12 03:00:00 ET 82.8075 55.8113 main 0 0 P_____________ AL061966 82.8075 55.8113 EX 35 -4 2 25
1966233N13340 1966 60 NI AS FAITH 1966-09-12 06:00:00 ET 82.9000 56.2000 main 0 0 O_____________ hurdat_atl AL061966 82.9000 -303.800 EX 35 -4 2 32
1966233N13340 1966 60 NI AS FAITH 1966-09-12 09:00:00 ET 82.9650 56.5928 main 0 0 P_____________ AL061966 82.9650 56.5928 EX 35 -4 1 43
1966233N13340 1966 60 NI AS FAITH 1966-09-12 12:00:00 ET 83.0000 57.0000 main 0 0 O_____________ hurdat_atl AL061966 83.0000 -303.000 EX 35 -4 1 66
1966233N13340 1966 60 NI AS FAITH 1966-09-12 15:00:00 ET 83.0075 57.4013 main 0 0 P_____________ AL061966 83.0075 57.4013 EX 32 -4 1 90
1966233N13340 1966 60 NI AS FAITH 1966-09-12 18:00:00 ET 83.0000 57.8000 main 0 0 O_____________ hurdat_atl AL061966 83.0000 -302.200 EX 30 -4 1 94
1966233N13340 1966 60 NI AS FAITH 1966-09-12 21:00:00 ET 83.0000 58.2075 main 0 0 P_____________ AL061966 83.0000 58.2075 EX 30 -4 1 90
1966233N13340 1966 60 NI AS FAITH 1966-09-13 00:00:00 ET 83.0000 58.6000 main 0 0 O_____________ hurdat_atl AL061966 83.0000 -301.400 EX 30 -4 1 90
1966233N13340 1966 60 NI AS FAITH 1966-09-13 03:00:00 ET 83.0000 58.9575 main 0 0 P_____________ AL061966 83.0000 58.9575 EX 30 -4 1 90
1966233N13340 1966 60 NI AS FAITH 1966-09-13 06:00:00 ET 83.0000 59.3000 main 0 0 O_____________ hurdat_atl AL061966 83.0000 -300.700 EX 30 -4 1 90
1966233N13340 1966 60 NI AS FAITH 1966-09-13 09:00:00 ET 82.9999 59.6275 main 0 0 P_____________ AL061966 82.9999 59.6275 EX 30 -4 1 90
1966233N13340 1966 60 NI AS FAITH 1966-09-13 12:00:00 ET 83.0000 60.0000 main 0 0 O_____________ hurdat_atl AL061966 83.0000 -300.000 EX 30 -4 1 90
1966233N13340 1966 60 NI AS FAITH 1966-09-13 15:00:00 ET 83.0002 60.4700 main 0 0 P_____________ AL061966 83.0002 60.4700 EX 27 -4 1 90
1966233N13340 1966 60 NI AS FAITH 1966-09-13 18:00:00 ET 83.0000 61.0000 main 0 O_____________ hurdat_atl AL061966 83.0000 -299.000 EX 25 -4 1 90

IBTrACS Databaseについて

本データベースは、米国NOAAが公開する1842年以降の世界の熱帯低気圧のベストトラックデータアーカイブInternational Best Track Archive for Climate Stewardship (IBTrACS)を、ウェブで閲覧しやすい形式に変換したものです。

最終更新日:2022-05-26